createdAt,value
2018-09-29T00:00:15.406Z,1025.84
2018-09-29T00:01:24.824Z,1025.83
2018-09-29T00:02:34.503Z,1025.84
2018-09-29T00:03:44.201Z,1025.84
2018-09-29T00:04:53.659Z,1025.9
2018-09-29T00:06:02.959Z,1025.92
2018-09-29T00:07:12.119Z,1025.95
2018-09-29T00:08:21.814Z,1025.9
2018-09-29T00:09:31.239Z,1025.88
2018-09-29T00:10:40.664Z,1025.87
2018-09-29T00:11:49.579Z,1025.87
2018-09-29T00:12:59.495Z,1025.9
2018-09-29T00:14:08.904Z,1025.9
2018-09-29T00:15:18.082Z,1025.87
2018-09-29T00:16:28.093Z,1025.86
2018-09-29T00:17:38.339Z,1025.81
2018-09-29T00:18:47.504Z,1025.8
2018-09-29T00:19:56.929Z,1025.79
2018-09-29T00:21:06.366Z,1025.78
2018-09-29T00:22:16.048Z,1025.8
2018-09-29T00:23:25.982Z,1025.78
2018-09-29T00:24:35.902Z,1025.8
2018-09-29T00:25:45.565Z,1025.81
2018-09-29T00:26:55.506Z,1025.77
2018-09-29T00:28:04.145Z,1025.78
2018-09-29T00:29:13.825Z,1025.71
2018-09-29T00:30:23.517Z,1025.7
2018-09-29T00:31:32.958Z,1025.7
2018-09-29T00:32:42.902Z,1025.62
2018-09-29T00:33:52.339Z,1025.65
2018-09-29T00:35:02.280Z,1025.61
2018-09-29T00:36:12.234Z,1025.56
2018-09-29T00:37:21.408Z,1025.56
2018-09-29T00:38:31.123Z,1025.56
2018-09-29T00:39:41.050Z,1025.58
2018-09-29T00:40:50.508Z,1025.58
2018-09-29T00:41:59.406Z,1025.58
2018-09-29T00:43:09.349Z,1025.59
2018-09-29T00:44:19.030Z,1025.56
2018-09-29T00:45:28.710Z,1025.6
2018-09-29T00:46:38.386Z,1025.6
2018-09-29T00:47:48.337Z,1025.58
2018-09-29T00:48:58.038Z,1025.63
2018-09-29T00:50:07.445Z,1025.65
2018-09-29T00:51:16.856Z,1025.7
2018-09-29T00:52:25.765Z,1025.65
2018-09-29T00:53:34.955Z,1025.66
2018-09-29T00:54:44.682Z,1025.66
2018-09-29T00:55:53.619Z,1025.68
2018-09-29T00:57:03.085Z,1025.66
2018-09-29T00:58:12.260Z,1025.69
2018-09-29T00:59:21.989Z,1025.64
2018-09-29T01:00:31.456Z,1025.64
2018-09-29T01:01:40.902Z,1025.57
2018-09-29T01:02:50.371Z,1025.6
2018-09-29T01:04:00.093Z,1025.6
2018-09-29T01:05:10.065Z,1025.65
2018-09-29T01:06:19.524Z,1025.68
2018-09-29T01:07:29.223Z,1025.66
2018-09-29T01:08:38.849Z,1025.66
2018-09-29T01:09:48.573Z,1025.69
2018-09-29T01:10:57.730Z,1025.66
2018-09-29T01:12:06.899Z,1025.65
2018-09-29T01:13:16.349Z,1025.66
2018-09-29T01:14:25.755Z,1025.64
2018-09-29T01:15:35.167Z,1025.62
2018-09-29T01:16:44.339Z,1025.65
2018-09-29T01:17:53.503Z,1025.67
2018-09-29T01:19:02.963Z,1025.65
2018-09-29T01:20:11.869Z,1025.63
2018-09-29T01:21:21.544Z,1025.64
2018-09-29T01:22:30.463Z,1025.67
2018-09-29T01:23:40.154Z,1025.63
2018-09-29T01:24:49.822Z,1025.68
2018-09-29T01:25:59.248Z,1025.68
2018-09-29T01:27:08.153Z,1025.65
2018-09-29T01:28:17.336Z,1025.62
2018-09-29T01:29:27.015Z,1025.65
2018-09-29T01:30:35.642Z,1025.62
2018-09-29T01:31:45.060Z,1025.61
2018-09-29T01:32:54.738Z,1025.62
2018-09-29T01:34:03.899Z,1025.6
2018-09-29T01:35:13.063Z,1025.57
2018-09-29T01:36:22.231Z,1025.58
2018-09-29T01:37:31.667Z,1025.55
2018-09-29T01:38:41.079Z,1025.55
2018-09-29T01:39:50.752Z,1025.56
2018-09-29T01:40:59.909Z,1025.58
2018-09-29T01:42:09.319Z,1025.6
2018-09-29T01:43:19.012Z,1025.58
2018-09-29T01:44:28.685Z,1025.56
2018-09-29T01:45:38.124Z,1025.6
2018-09-29T01:46:48.043Z,1025.54
2018-09-29T01:47:57.473Z,1025.53
2018-09-29T01:49:06.901Z,1025.54
2018-09-29T01:50:16.585Z,1025.49
2018-09-29T01:51:25.757Z,1025.51
2018-09-29T01:52:35.187Z,1025.5
2018-09-29T01:53:44.862Z,1025.51
2018-09-29T01:54:54.055Z,1025.49
2018-09-29T01:56:02.975Z,1025.54
2018-09-29T01:57:12.137Z,1025.55
2018-09-29T01:58:22.080Z,1025.52
2018-09-29T01:59:31.777Z,1025.51
2018-09-29T02:00:40.965Z,1025.53
2018-09-29T02:01:50.646Z,1025.5
2018-09-29T02:03:00.066Z,1025.43
2018-09-29T02:04:09.746Z,1025.43
2018-09-29T02:05:19.181Z,1025.47
2018-09-29T02:06:28.600Z,1025.44
2018-09-29T02:07:38.021Z,1025.46
2018-09-29T02:08:47.422Z,1025.43
2018-09-29T02:09:56.848Z,1025.48
2018-09-29T02:11:06.009Z,1025.48
2018-09-29T02:12:15.440Z,1025.45
2018-09-29T02:13:25.154Z,1025.43
2018-09-29T02:14:34.574Z,1025.48
2018-09-29T02:15:43.719Z,1025.49
2018-09-29T02:16:53.391Z,1025.45
2018-09-29T02:18:02.595Z,1025.47
2018-09-29T02:19:12.293Z,1025.37
2018-09-29T02:20:21.461Z,1025.42
2018-09-29T02:21:31.125Z,1025.44
2018-09-29T02:22:40.810Z,1025.46
2018-09-29T02:23:49.724Z,1025.46
2018-09-29T02:24:59.154Z,1025.51
2018-09-29T02:26:08.835Z,1025.46
2018-09-29T02:27:18.256Z,1025.51
2018-09-29T02:28:27.406Z,1025.52
2018-09-29T02:29:37.202Z,1025.5
2018-09-29T02:30:46.912Z,1025.5
2018-09-29T02:31:56.326Z,1025.45
2018-09-29T02:33:06.290Z,1025.5
2018-09-29T02:34:15.726Z,1025.48
2018-09-29T02:35:25.458Z,1025.51
2018-09-29T02:36:34.902Z,1025.49
2018-09-29T02:37:44.352Z,1025.52
2018-09-29T02:38:53.310Z,1025.54
2018-09-29T02:40:02.504Z,1025.51
2018-09-29T02:41:12.444Z,1025.54
2018-09-29T02:42:22.360Z,1025.52
2018-09-29T02:43:32.036Z,1025.49
2018-09-29T02:44:41.725Z,1025.52
2018-09-29T02:45:51.652Z,1025.57
2018-09-29T02:47:01.320Z,1025.57
2018-09-29T02:48:10.481Z,1025.58
2018-09-29T02:49:19.927Z,1025.6
2018-09-29T02:50:29.092Z,1025.59
2018-09-29T02:51:38.768Z,1025.61
2018-09-29T02:52:48.460Z,1025.63
2018-09-29T02:53:57.110Z,1025.58
2018-09-29T02:55:06.522Z,1025.6
2018-09-29T02:56:15.698Z,1025.54
2018-09-29T02:57:25.377Z,1025.58
2018-09-29T02:58:34.804Z,1025.59
2018-09-29T02:59:44.739Z,1025.56
2018-09-29T03:00:54.251Z,1025.55
2018-09-29T03:02:03.677Z,1025.58
2018-09-29T03:03:13.089Z,1025.58
2018-09-29T03:04:22.250Z,1025.59
2018-09-29T03:05:31.427Z,1025.58
2018-09-29T03:06:41.130Z,1025.58
2018-09-29T03:07:51.062Z,1025.59
2018-09-29T03:09:01.013Z,1025.6
2018-09-29T03:10:10.953Z,1025.6
2018-09-29T03:11:20.627Z,1025.58
2018-09-29T03:12:29.796Z,1025.62
2018-09-29T03:13:38.975Z,1025.63
2018-09-29T03:14:48.121Z,1025.62
2018-09-29T03:15:57.533Z,1025.6
2018-09-29T03:17:07.202Z,1025.61
2018-09-29T03:18:16.380Z,1025.58
2018-09-29T03:19:26.411Z,1025.6
2018-09-29T03:20:36.243Z,1025.56
2018-09-29T03:21:45.412Z,1025.56
2018-09-29T03:22:55.102Z,1025.54
2018-09-29T03:24:04.575Z,1025.54
2018-09-29T03:25:14.261Z,1025.55
2018-09-29T03:26:23.926Z,1025.51
2018-09-29T03:27:33.868Z,1025.54
2018-09-29T03:28:43.300Z,1025.53
2018-09-29T03:29:52.446Z,1025.56
2018-09-29T03:31:02.124Z,1025.54
2018-09-29T03:32:11.863Z,1025.56
2018-09-29T03:33:21.824Z,1025.53
2018-09-29T03:34:31.002Z,1025.56
2018-09-29T03:35:39.649Z,1025.59
2018-09-29T03:36:49.588Z,1025.61
2018-09-29T03:37:58.496Z,1025.6
2018-09-29T03:39:07.143Z,1025.62
2018-09-29T03:40:16.831Z,1025.57
2018-09-29T03:41:26.500Z,1025.57
2018-09-29T03:42:36.447Z,1025.54
2018-09-29T03:43:46.133Z,1025.54
2018-09-29T03:44:55.305Z,1025.53
2018-09-29T03:46:04.748Z,1025.52
2018-09-29T03:47:13.912Z,1025.5
2018-09-29T03:48:23.078Z,1025.49
2018-09-29T03:49:32.495Z,1025.45
2018-09-29T03:50:42.453Z,1025.44
2018-09-29T03:51:52.137Z,1025.47
2018-09-29T03:53:01.821Z,1025.46
2018-09-29T03:54:11.485Z,1025.42
2018-09-29T03:55:21.172Z,1025.42
2018-09-29T03:56:30.632Z,1025.44
2018-09-29T03:57:40.303Z,1025.4
2018-09-29T03:58:48.944Z,1025.37
2018-09-29T03:59:58.628Z,1025.43
2018-09-29T04:01:08.052Z,1025.42
2018-09-29T04:02:16.957Z,1025.43
2018-09-29T04:03:25.865Z,1025.44
2018-09-29T04:04:34.769Z,1025.47
2018-09-29T04:05:44.449Z,1025.41
2018-09-29T04:06:53.876Z,1025.37
2018-09-29T04:08:02.784Z,1025.37
2018-09-29T04:09:12.205Z,1025.35
2018-09-29T04:10:21.933Z,1025.35
2018-09-29T04:11:31.611Z,1025.4
2018-09-29T04:12:41.579Z,1025.41
2018-09-29T04:13:50.784Z,1025.4
2018-09-29T04:15:01.348Z,1025.46
2018-09-29T04:16:10.507Z,1025.45
2018-09-29T04:17:20.181Z,1025.46
2018-09-29T04:18:29.601Z,1025.46
2018-09-29T04:19:39.023Z,1025.46
2018-09-29T04:20:48.439Z,1025.47
2018-09-29T04:21:57.617Z,1025.48
2018-09-29T04:23:07.295Z,1025.48
2018-09-29T04:24:16.727Z,1025.47
2018-09-29T04:25:25.877Z,1025.47
2018-09-29T04:26:35.045Z,1025.5
2018-09-29T04:27:44.477Z,1025.48
2018-09-29T04:28:54.148Z,1025.49
2018-09-29T04:30:03.579Z,1025.49
2018-09-29T04:31:13.267Z,1025.5
2018-09-29T04:32:22.970Z,1025.5
2018-09-29T04:33:32.674Z,1025.48
2018-09-29T04:34:42.627Z,1025.46
2018-09-29T04:35:52.566Z,1025.44
2018-09-29T04:37:02.531Z,1025.47
2018-09-29T04:38:11.699Z,1025.5
2018-09-29T04:39:21.110Z,1025.49
2018-09-29T04:40:30.517Z,1025.53
2018-09-29T04:41:39.680Z,1025.58
2018-09-29T04:42:49.622Z,1025.59
2018-09-29T04:43:59.092Z,1025.56
2018-09-29T04:45:08.505Z,1025.54
2018-09-29T04:46:17.662Z,1025.53
2018-09-29T04:47:26.829Z,1025.52
2018-09-29T04:48:36.515Z,1025.52
2018-09-29T04:49:46.196Z,1025.56
2018-09-29T04:50:55.913Z,1025.57
2018-09-29T04:52:05.090Z,1025.59
2018-09-29T04:53:14.517Z,1025.6
2018-09-29T04:54:24.203Z,1025.6
2018-09-29T04:55:33.107Z,1025.61
2018-09-29T04:56:42.310Z,1025.64
2018-09-29T04:57:51.986Z,1025.63
2018-09-29T04:59:01.397Z,1025.65
2018-09-29T05:00:11.103Z,1025.65
2018-09-29T05:01:21.052Z,1025.64
2018-09-29T05:02:30.729Z,1025.63
2018-09-29T05:03:40.149Z,1025.64
2018-09-29T05:04:49.573Z,1025.6
2018-09-29T05:05:59.245Z,1025.57
2018-09-29T05:07:08.142Z,1025.6
2018-09-29T05:08:17.817Z,1025.56
2018-09-29T05:09:26.733Z,1025.56
2018-09-29T05:10:35.910Z,1025.54
2018-09-29T05:11:45.340Z,1025.59
2018-09-29T05:12:54.513Z,1025.61
2018-09-29T05:14:04.012Z,1025.63
2018-09-29T05:15:13.973Z,1025.67
2018-09-29T05:16:23.658Z,1025.65
2018-09-29T05:17:32.826Z,1025.67
2018-09-29T05:18:42.790Z,1025.65
2018-09-29T05:19:52.729Z,1025.68
2018-09-29T05:21:02.416Z,1025.66
2018-09-29T05:22:11.857Z,1025.62
2018-09-29T05:23:21.592Z,1025.64
2018-09-29T05:24:31.118Z,1025.68
2018-09-29T05:25:40.084Z,1025.68
2018-09-29T05:26:49.238Z,1025.7
2018-09-29T05:27:58.676Z,1025.69
2018-09-29T05:29:07.841Z,1025.67
2018-09-29T05:30:16.995Z,1025.65
2018-09-29T05:31:26.688Z,1025.67
2018-09-29T05:32:36.620Z,1025.69
2018-09-29T05:33:45.850Z,1025.72
2018-09-29T05:34:55.518Z,1025.7
2018-09-29T05:36:04.425Z,1025.73
2018-09-29T05:37:13.834Z,1025.76
2018-09-29T05:38:22.815Z,1025.8
2018-09-29T05:39:33.333Z,1025.82
2018-09-29T05:40:42.770Z,1025.81
2018-09-29T05:41:52.451Z,1025.83
2018-09-29T05:43:01.874Z,1025.83
2018-09-29T05:44:11.033Z,1025.84
2018-09-29T05:45:20.460Z,1025.87
2018-09-29T05:46:29.902Z,1025.83
2018-09-29T05:47:39.318Z,1025.87
2018-09-29T05:48:48.985Z,1025.85
2018-09-29T05:49:58.406Z,1025.85
2018-09-29T05:51:08.129Z,1025.87
2018-09-29T05:52:17.625Z,1025.89
2018-09-29T05:53:26.786Z,1025.92
2018-09-29T05:54:35.951Z,1025.93
2018-09-29T05:55:45.377Z,1025.93
2018-09-29T05:56:55.066Z,1025.99
2018-09-29T05:58:04.242Z,1025.94
2018-09-29T05:59:13.679Z,1025.92
2018-09-29T06:00:22.895Z,1025.93
2018-09-29T06:01:32.429Z,1025.93
2018-09-29T06:02:42.127Z,1025.93
2018-09-29T06:03:51.801Z,1025.97
2018-09-29T06:05:00.770Z,1025.96
2018-09-29T06:06:10.187Z,1025.97
2018-09-29T06:07:19.760Z,1026
2018-09-29T06:08:30.332Z,1025.97
2018-09-29T06:09:40.043Z,1025.98
2018-09-29T06:10:49.453Z,1026.01
2018-09-29T06:11:58.651Z,1026.05
2018-09-29T06:13:08.362Z,1026
2018-09-29T06:14:18.770Z,1026.02
2018-09-29T06:15:28.195Z,1025.99
2018-09-29T06:16:37.347Z,1026.02
2018-09-29T06:17:47.282Z,1026.03
2018-09-29T06:18:56.976Z,1026.05
2018-09-29T06:20:06.651Z,1026.07
2018-09-29T06:21:16.060Z,1026.1
2018-09-29T06:22:25.732Z,1026.06
2018-09-29T06:23:35.138Z,1026.08
2018-09-29T06:24:44.817Z,1026.06
2018-09-29T06:25:54.224Z,1026.08
2018-09-29T06:27:03.134Z,1026.09
2018-09-29T06:28:12.832Z,1026.07
2018-09-29T06:29:22.017Z,1026.08
2018-09-29T06:30:31.471Z,1026.11
2018-09-29T06:31:40.624Z,1026.11
2018-09-29T06:32:50.561Z,1026.14
2018-09-29T06:33:59.974Z,1026.09
2018-09-29T06:35:09.767Z,1026.09
2018-09-29T06:36:19.441Z,1026.09
2018-09-29T06:37:28.852Z,1026.06
2018-09-29T06:38:38.521Z,1026.06
2018-09-29T06:39:48.460Z,1026.04
2018-09-29T06:40:57.426Z,1026.01
2018-09-29T06:42:07.178Z,1026.01
2018-09-29T06:43:16.857Z,1025.97
2018-09-29T06:44:26.288Z,1025.94
2018-09-29T06:45:35.701Z,1025.96
2018-09-29T06:46:45.375Z,1025.94
2018-09-29T06:47:55.350Z,1025.98
2018-09-29T06:49:04.924Z,1025.93
2018-09-29T06:50:14.592Z,1025.95
2018-09-29T06:51:24.031Z,1025.97
2018-09-29T06:52:33.968Z,1025.96
2018-09-29T06:53:43.121Z,1025.96
2018-09-29T06:54:52.801Z,1025.97
2018-09-29T06:56:01.960Z,1025.97
2018-09-29T06:57:11.153Z,1025.95
2018-09-29T06:58:20.824Z,1026
2018-09-29T06:59:30.501Z,1026.04
2018-09-29T07:00:39.930Z,1026.06
2018-09-29T07:01:49.588Z,1026.07
2018-09-29T07:02:59.010Z,1026.06
2018-09-29T07:04:09.064Z,1026.06
2018-09-29T07:05:18.263Z,1026.08
2018-09-29T07:06:27.518Z,1026.01
2018-09-29T07:07:37.882Z,1026.01
2018-09-29T07:08:47.319Z,1025.98
2018-09-29T07:09:57.010Z,1026
2018-09-29T07:11:06.442Z,1025.97
2018-09-29T07:12:15.613Z,1026.01
2018-09-29T07:13:25.294Z,1026.04
2018-09-29T07:14:35.240Z,1026
2018-09-29T07:15:45.179Z,1025.96
2018-09-29T07:16:54.956Z,1025.98
2018-09-29T07:18:04.385Z,1025.99
2018-09-29T07:19:14.057Z,1026.03
2018-09-29T07:20:23.991Z,1026.05
2018-09-29T07:21:33.570Z,1026.1
2018-09-29T07:22:43.676Z,1026.04
2018-09-29T07:23:53.617Z,1026.04
2018-09-29T07:25:03.110Z,1026.05
2018-09-29T07:26:12.537Z,1026.04
2018-09-29T07:27:22.206Z,1026.08
2018-09-29T07:28:31.645Z,1026.12
2018-09-29T07:29:41.072Z,1026.12
2018-09-29T07:30:50.411Z,1026.1
2018-09-29T07:32:01.951Z,1026.08
2018-09-29T07:33:11.677Z,1026.1
2018-09-29T07:34:20.836Z,1026.04
2018-09-29T07:35:29.996Z,1026.11
2018-09-29T07:36:39.672Z,1026.12
2018-09-29T07:37:49.374Z,1026.09
2018-09-29T07:38:59.080Z,1026.09
2018-09-29T07:40:08.798Z,1026.1
2018-09-29T07:41:18.240Z,1026.06
2018-09-29T07:42:27.905Z,1026.11
2018-09-29T07:43:37.338Z,1026.11
2018-09-29T07:44:46.766Z,1026.08
2018-09-29T07:45:56.182Z,1026.07
2018-09-29T07:47:05.339Z,1026.07
2018-09-29T07:48:15.300Z,1026.07
2018-09-29T07:49:25.033Z,1026.05
2018-09-29T07:50:34.709Z,1026.02
2018-09-29T07:51:44.397Z,1026.04
2018-09-29T07:52:54.108Z,1026.07
2018-09-29T07:54:04.106Z,1026.05
2018-09-29T07:55:13.294Z,1026.04
2018-09-29T07:56:22.980Z,1026.07
2018-09-29T07:57:32.961Z,1026.06
2018-09-29T07:58:42.394Z,1026.07
2018-09-29T07:59:51.837Z,1026.06
2018-09-29T08:01:01.513Z,1026.04
2018-09-29T08:02:11.961Z,1026.03
2018-09-29T08:03:21.127Z,1026.01
2018-09-29T08:04:30.817Z,1025.99
2018-09-29T08:05:40.235Z,1025.99
2018-09-29T08:06:49.671Z,1026.01
2018-09-29T08:07:59.358Z,1026.01
2018-09-29T08:09:08.526Z,1026.03
2018-09-29T08:10:18.013Z,1026.02
2018-09-29T08:11:27.453Z,1026.05
2018-09-29T08:12:36.934Z,1026.03
2018-09-29T08:13:46.602Z,1026.04
2018-09-29T08:14:55.799Z,1026.04
2018-09-29T08:16:05.269Z,1026.03
2018-09-29T08:17:14.730Z,1025.99
2018-09-29T08:18:24.163Z,1025.95
2018-09-29T08:19:33.854Z,1025.94
2018-09-29T08:20:43.311Z,1025.93
2018-09-29T08:21:52.982Z,1025.94
2018-09-29T08:23:01.900Z,1025.92
2018-09-29T08:24:10.841Z,1025.91
2018-09-29T08:25:20.484Z,1025.89
2018-09-29T08:26:29.909Z,1025.91
2018-09-29T08:27:39.630Z,1025.85
2018-09-29T08:28:49.040Z,1025.8
2018-09-29T08:29:58.718Z,1025.83
2018-09-29T08:31:08.424Z,1025.83
2018-09-29T08:32:17.907Z,1025.86
2018-09-29T08:33:28.533Z,1025.79
2018-09-29T08:34:37.723Z,1025.8
2018-09-29T08:35:47.397Z,1025.78
2018-09-29T08:36:56.559Z,1025.74
2018-09-29T08:38:05.985Z,1025.73
2018-09-29T08:39:16.372Z,1025.76
2018-09-29T08:40:26.527Z,1025.75
2018-09-29T08:41:36.463Z,1025.71
2018-09-29T08:42:45.909Z,1025.7
2018-09-29T08:43:55.594Z,1025.68
2018-09-29T08:45:04.770Z,1025.69
2018-09-29T08:46:13.959Z,1025.69
2018-09-29T08:47:23.659Z,1025.73
2018-09-29T08:48:33.082Z,1025.76
2018-09-29T08:49:42.253Z,1025.74
2018-09-29T08:50:51.429Z,1025.7
2018-09-29T08:52:00.331Z,1025.69
2018-09-29T08:53:09.521Z,1025.71
2018-09-29T08:54:19.469Z,1025.66
2018-09-29T08:55:29.199Z,1025.69
2018-09-29T08:56:38.879Z,1025.66
2018-09-29T08:57:48.554Z,1025.66
2018-09-29T08:58:58.502Z,1025.64
2018-09-29T09:00:07.647Z,1025.61
2018-09-29T09:01:17.107Z,1025.6
2018-09-29T09:02:26.824Z,1025.65
2018-09-29T09:03:36.285Z,1025.61
2018-09-29T09:04:45.963Z,1025.63
2018-09-29T09:05:55.398Z,1025.63
2018-09-29T09:07:04.822Z,1025.65
2018-09-29T09:08:13.758Z,1025.65
2018-09-29T09:09:23.005Z,1025.65
2018-09-29T09:10:33.204Z,1025.63
2018-09-29T09:11:43.157Z,1025.64
2018-09-29T09:12:53.134Z,1025.61
2018-09-29T09:14:02.582Z,1025.6
2018-09-29T09:15:12.123Z,1025.61
2018-09-29T09:16:21.283Z,1025.62
2018-09-29T09:17:30.697Z,1025.64
2018-09-29T09:18:40.366Z,1025.64
2018-09-29T09:19:49.284Z,1025.61
2018-09-29T09:20:58.969Z,1025.64
2018-09-29T09:22:08.403Z,1025.63
2018-09-29T09:23:18.104Z,1025.6
2018-09-29T09:24:27.950Z,1025.64
2018-09-29T09:25:37.633Z,1025.66
2018-09-29T09:26:47.606Z,1025.64
2018-09-29T09:27:57.581Z,1025.63
2018-09-29T09:29:07.012Z,1025.6
2018-09-29T09:30:17.044Z,1025.61
2018-09-29T09:31:27.378Z,1025.55
2018-09-29T09:32:37.135Z,1025.53
2018-09-29T09:33:46.307Z,1025.54
2018-09-29T09:34:55.763Z,1025.56
2018-09-29T09:36:05.466Z,1025.53
2018-09-29T09:37:14.722Z,1025.54
2018-09-29T09:38:23.898Z,1025.53
2018-09-29T09:39:33.333Z,1025.47
2018-09-29T09:40:42.757Z,1025.44
2018-09-29T09:41:52.436Z,1025.45
2018-09-29T09:43:01.875Z,1025.45
2018-09-29T09:44:11.313Z,1025.45
2018-09-29T09:45:21.022Z,1025.39
2018-09-29T09:46:30.455Z,1025.41
2018-09-29T09:47:40.142Z,1025.47
2018-09-29T09:48:50.082Z,1025.42
2018-09-29T09:49:59.518Z,1025.39
2018-09-29T09:51:09.233Z,1025.4
2018-09-29T09:52:19.180Z,1025.43
2018-09-29T09:53:28.607Z,1025.38
2018-09-29T09:54:38.058Z,1025.37
2018-09-29T09:55:47.737Z,1025.35
2018-09-29T09:56:58.042Z,1025.34
2018-09-29T09:58:07.212Z,1025.31
2018-09-29T09:59:17.169Z,1025.29
2018-09-29T10:00:26.648Z,1025.25
2018-09-29T10:01:36.330Z,1025.24
2018-09-29T10:02:45.496Z,1025.21
2018-09-29T10:03:54.667Z,1025.21
2018-09-29T10:05:03.830Z,1025.16
2018-09-29T10:06:13.495Z,1025.16
2018-09-29T10:07:23.305Z,1025.17
2018-09-29T10:08:32.221Z,1025.12
2018-09-29T10:09:41.691Z,1025.12
2018-09-29T10:10:51.628Z,1025.06
2018-09-29T10:12:01.058Z,1025.03
2018-09-29T10:13:10.724Z,1025.08
2018-09-29T10:14:20.152Z,1025.01
2018-09-29T10:15:29.308Z,1024.94
2018-09-29T10:16:38.727Z,1025.02
2018-09-29T10:17:48.419Z,1024.98
2018-09-29T10:18:57.875Z,1024.94
2018-09-29T10:20:07.034Z,1024.94
2018-09-29T10:21:16.459Z,1024.89
2018-09-29T10:22:26.135Z,1024.84
2018-09-29T10:23:36.073Z,1024.81
2018-09-29T10:24:45.503Z,1024.76
2018-09-29T10:25:54.666Z,1024.75
2018-09-29T10:27:04.776Z,1024.71
2018-09-29T10:28:13.683Z,1024.7
2018-09-29T10:29:23.394Z,1024.65
2018-09-29T10:30:32.558Z,1024.64
2018-09-29T10:31:41.740Z,1024.7
2018-09-29T10:32:51.436Z,1024.71
2018-09-29T10:34:00.863Z,1024.64
2018-09-29T10:35:10.306Z,1024.62
2018-09-29T10:36:20.270Z,1024.59
2018-09-29T10:37:29.630Z,1024.6
2018-09-29T10:38:38.798Z,1024.6
2018-09-29T10:39:48.232Z,1024.56
2018-09-29T10:40:58.166Z,1024.58
2018-09-29T10:42:07.591Z,1024.55
2018-09-29T10:43:17.018Z,1024.51
2018-09-29T10:44:26.446Z,1024.49
2018-09-29T10:45:36.386Z,1024.45
2018-09-29T10:46:46.054Z,1024.46
2018-09-29T10:47:55.221Z,1024.41
2018-09-29T10:49:04.900Z,1024.39
2018-09-29T10:50:14.594Z,1024.36
2018-09-29T10:51:24.010Z,1024.35
2018-09-29T10:52:33.699Z,1024.32
2018-09-29T10:53:43.153Z,1024.3
2018-09-29T10:54:52.579Z,1024.25
2018-09-29T10:56:02.285Z,1024.24
2018-09-29T10:57:11.708Z,1024.3
2018-09-29T10:58:21.145Z,1024.23
2018-09-29T10:59:30.317Z,1024.22
2018-09-29T11:00:39.798Z,1024.27
2018-09-29T11:01:49.283Z,1024.25
2018-09-29T11:02:58.720Z,1024.19
2018-09-29T11:04:07.899Z,1024.17
2018-09-29T11:05:17.325Z,1024.12
2018-09-29T11:06:26.497Z,1024.11
2018-09-29T11:07:35.922Z,1024.1
2018-09-29T11:08:45.364Z,1024.11
2018-09-29T11:09:55.070Z,1024.14
2018-09-29T11:11:04.227Z,1024.13
2018-09-29T11:12:13.892Z,1024.13
2018-09-29T11:13:23.066Z,1024.12
2018-09-29T11:14:32.303Z,1024.1
2018-09-29T11:15:41.848Z,1024.1
2018-09-29T11:16:51.556Z,1024.1
2018-09-29T11:18:13.825Z,1024.07
2018-09-29T11:19:23.244Z,1024.04
2018-09-29T11:20:32.172Z,1023.99
2018-09-29T11:21:41.900Z,1024.02
2018-09-29T11:22:51.093Z,1023.96
2018-09-29T11:24:00.026Z,1023.97
2018-09-29T11:25:09.454Z,1023.96
2018-09-29T11:26:18.616Z,1023.9
2018-09-29T11:27:27.787Z,1023.92
2018-09-29T11:28:37.269Z,1023.91
2018-09-29T11:29:46.804Z,1023.9
2018-09-29T11:30:56.489Z,1023.95
2018-09-29T11:32:05.921Z,1023.91
2018-09-29T11:33:15.090Z,1023.88
2018-09-29T11:34:24.053Z,1023.79
2018-09-29T11:35:33.760Z,1023.77
2018-09-29T11:36:43.456Z,1023.75
2018-09-29T11:37:52.900Z,1023.71
2018-09-29T11:39:02.614Z,1023.74
2018-09-29T11:40:12.434Z,1023.71
2018-09-29T11:41:21.942Z,1023.71
2018-09-29T11:42:31.650Z,1023.69
2018-09-29T11:43:40.832Z,1023.69
2018-09-29T11:44:50.274Z,1023.64
2018-09-29T11:45:59.891Z,1023.58
2018-09-29T11:47:09.313Z,1023.61
2018-09-29T11:48:18.477Z,1023.59
2018-09-29T11:49:27.633Z,1023.61
2018-09-29T11:50:36.869Z,1023.56
2018-09-29T11:51:46.300Z,1023.53
2018-09-29T11:52:56.430Z,1023.53
2018-09-29T11:54:06.124Z,1023.52
2018-09-29T11:55:15.548Z,1023.5
2018-09-29T11:56:24.713Z,1023.46
2018-09-29T11:57:34.400Z,1023.44
2018-09-29T11:58:43.820Z,1023.39
2018-09-29T11:59:53.260Z,1023.38
2018-09-29T12:01:02.434Z,1023.39
2018-09-29T12:02:11.643Z,1023.35
2018-09-29T12:03:21.419Z,1023.34
2018-09-29T12:04:30.856Z,1023.3
2018-09-29T12:05:39.780Z,1023.24
2018-09-29T12:06:48.982Z,1023.27
2018-09-29T12:07:58.388Z,1023.25
2018-09-29T12:09:08.969Z,1023.29
2018-09-29T12:10:18.682Z,1023.23
2018-09-29T12:11:28.119Z,1023.23
2018-09-29T12:12:37.558Z,1023.18
2018-09-29T12:13:47.014Z,1023.15
2018-09-29T12:14:57.361Z,1023.13
2018-09-29T12:16:06.774Z,1023.12
2018-09-29T12:17:16.455Z,1023.06
2018-09-29T12:18:25.872Z,1023.06
2018-09-29T12:19:35.570Z,1023.05
2018-09-29T12:20:45.257Z,1023.03
2018-09-29T12:21:54.177Z,1022.97
2018-09-29T12:23:03.629Z,1022.94
2018-09-29T12:24:12.273Z,1022.91
2018-09-29T12:25:22.214Z,1022.91
2018-09-29T12:26:31.643Z,1022.9
2018-09-29T12:27:41.065Z,1022.9
2018-09-29T12:28:50.743Z,1022.85
2018-09-29T12:29:59.751Z,1022.84
2018-09-29T12:31:09.499Z,1022.82
2018-09-29T12:32:18.925Z,1022.81
2018-09-29T12:33:28.607Z,1022.8
2018-09-29T12:34:37.504Z,1022.82
2018-09-29T12:35:47.196Z,1022.78
2018-09-29T12:36:56.707Z,1022.79
2018-09-29T12:38:05.765Z,1022.75
2018-09-29T12:39:14.934Z,1022.72
2018-09-29T12:40:24.371Z,1022.7
2018-09-29T12:41:33.787Z,1022.72
2018-09-29T12:42:43.754Z,1022.7
2018-09-29T12:43:52.649Z,1022.67
2018-09-29T12:45:02.342Z,1022.68
2018-09-29T12:46:11.773Z,1022.66
2018-09-29T12:47:21.463Z,1022.66
2018-09-29T12:48:30.954Z,1022.7
2018-09-29T12:49:40.373Z,1022.64
2018-09-29T12:50:50.304Z,1022.61
2018-09-29T12:51:59.850Z,1022.63
2018-09-29T12:53:09.448Z,1022.6
2018-09-29T12:54:18.622Z,1022.58
2018-09-29T12:55:27.841Z,1022.5
2018-09-29T12:56:36.998Z,1022.48
2018-09-29T12:57:46.685Z,1022.53
2018-09-29T12:58:56.456Z,1022.44
2018-09-29T13:00:06.605Z,1022.49
2018-09-29T13:01:16.030Z,1022.47
2018-09-29T13:02:25.447Z,1022.45
2018-09-29T13:03:34.395Z,1022.42
2018-09-29T13:04:43.034Z,1022.4
2018-09-29T13:05:52.445Z,1022.38
2018-09-29T13:07:02.117Z,1022.37
2018-09-29T13:08:11.277Z,1022.33
2018-09-29T13:09:20.973Z,1022.33
2018-09-29T13:10:30.425Z,1022.32
2018-09-29T13:11:39.866Z,1022.27
2018-09-29T13:12:49.035Z,1022.26
2018-09-29T13:13:59.180Z,1022.23
2018-09-29T13:15:07.808Z,1022.21
2018-09-29T13:16:17.518Z,1022.2
2018-09-29T13:17:26.942Z,1022.18
2018-09-29T13:18:36.874Z,1022.19
2018-09-29T13:19:46.030Z,1022.13
2018-09-29T13:20:55.461Z,1022.17
2018-09-29T13:22:05.164Z,1022.12
2018-09-29T13:23:14.334Z,1022.06
2018-09-29T13:24:23.516Z,1022.03
2018-09-29T13:25:33.262Z,1021.99
2018-09-29T13:26:42.716Z,1021.98
2018-09-29T13:27:51.871Z,1021.97
2018-09-29T13:29:01.547Z,1021.96
2018-09-29T13:30:11.237Z,1022.01
2018-09-29T13:31:20.894Z,1021.96
2018-09-29T13:32:30.319Z,1021.99
2018-09-29T13:33:40.071Z,1021.91
2018-09-29T13:34:50.007Z,1021.85
2018-09-29T13:35:59.710Z,1021.86
2018-09-29T13:37:09.190Z,1021.89
2018-09-29T13:38:18.686Z,1021.82
2018-09-29T13:39:29.068Z,1021.81
2018-09-29T13:40:38.493Z,1021.79
2018-09-29T13:41:47.652Z,1021.76
2018-09-29T13:42:57.079Z,1021.74
2018-09-29T13:44:06.239Z,1021.77
2018-09-29T13:45:15.917Z,1021.77
2018-09-29T13:46:25.839Z,1021.72
2018-09-29T13:47:35.277Z,1021.75
2018-09-29T13:48:44.722Z,1021.74
2018-09-29T13:49:54.443Z,1021.67
2018-09-29T13:51:03.871Z,1021.69
2018-09-29T13:52:13.083Z,1021.68
2018-09-29T13:53:22.790Z,1021.67
2018-09-29T13:54:32.796Z,1021.67
2018-09-29T13:55:41.964Z,1021.63
2018-09-29T13:56:51.423Z,1021.62
2018-09-29T13:58:00.836Z,1021.61
2018-09-29T13:59:10.272Z,1021.65
2018-09-29T14:00:19.457Z,1021.56
2018-09-29T14:01:28.881Z,1021.56
2018-09-29T14:02:38.048Z,1021.61
2018-09-29T14:03:47.484Z,1021.56